createdAt,value
2018-10-18T00:00:19.038Z,20.6
2018-10-18T00:01:07.902Z,20.6
2018-10-18T00:01:57.623Z,20.6
2018-10-18T00:02:47.517Z,20.6
2018-10-18T00:03:38.455Z,20.6
2018-10-18T00:04:28.195Z,20.6
2018-10-18T00:05:17.944Z,20.6
2018-10-18T00:06:09.258Z,20.6
2018-10-18T00:25:12.741Z,20.5
2018-10-18T00:26:04.131Z,20.5
2018-10-18T00:26:53.119Z,20.5
2018-10-18T00:27:43.443Z,20.5
2018-10-18T00:28:33.508Z,20.5
2018-10-18T00:29:23.036Z,20.5
2018-10-18T00:30:15.213Z,20.5
2018-10-18T00:31:03.431Z,20.5
2018-10-18T00:31:53.697Z,20.5
2018-10-18T00:32:43.563Z,20.6
2018-10-18T00:33:33.123Z,20.6
2018-10-18T00:34:23.693Z,20.5
2018-10-18T00:35:14.500Z,20.5
2018-10-18T00:36:05.210Z,20.5
2018-10-18T00:36:53.580Z,20.5
2018-10-18T00:37:44.219Z,20.5
2018-10-18T00:38:33.970Z,20.5
2018-10-18T00:39:24.333Z,20.5
2018-10-18T00:40:13.755Z,20.5
2018-10-18T00:41:04.700Z,20.5
2018-10-18T00:41:53.829Z,20.5
2018-10-18T00:42:44.271Z,20.5
2018-10-18T00:43:33.760Z,20.5
2018-10-18T00:44:24.925Z,20.5
2018-10-18T00:45:14.725Z,20.5
2018-10-18T00:46:04.760Z,20.6
2018-10-18T00:46:53.730Z,20.5
2018-10-18T00:47:44.094Z,20.5
2018-10-18T00:48:34.672Z,20.5
2018-10-18T00:49:25.075Z,20.5
2018-10-18T00:50:16.089Z,20.5
2018-10-18T00:51:05.779Z,20.5
2018-10-18T00:51:54.650Z,20.5
2018-10-18T00:52:44.418Z,20.5
2018-10-18T00:53:34.799Z,20.5
2018-10-18T00:54:25.153Z,20.5
2018-10-18T00:55:15.062Z,20.5
2018-10-18T00:56:06.149Z,20.5
2018-10-18T00:56:55.706Z,20.5
2018-10-18T00:57:45.477Z,20.5
2018-10-18T00:58:35.322Z,20.5
2018-10-18T00:59:25.849Z,20.5
2018-10-18T01:00:17.842Z,20.5
2018-10-18T01:01:05.369Z,20.5
2018-10-18T01:01:55.517Z,20.5
2018-10-18T01:02:45.766Z,20.5
2018-10-18T01:03:35.821Z,20.5
2018-10-18T01:04:26.176Z,20.5
2018-10-18T01:05:16.229Z,20.5
2018-10-18T01:06:06.655Z,20.5
2018-10-18T01:06:56.061Z,20.5
2018-10-18T01:07:46.149Z,20.5
2018-10-18T01:08:35.880Z,20.5
2018-10-18T01:09:26.231Z,20.5
2018-10-18T01:10:16.045Z,20.5
2018-10-18T01:11:06.083Z,20.5
2018-10-18T01:11:57.345Z,20.5
2018-10-18T01:12:47.778Z,20.5
2018-10-18T01:13:36.543Z,20.5
2018-10-18T01:14:26.394Z,20.5
2018-10-18T01:15:17.021Z,20.5
2018-10-18T01:16:06.776Z,20.5
2018-10-18T01:16:57.117Z,20.5
2018-10-18T01:17:46.925Z,20.4
2018-10-18T01:18:36.740Z,20.5
2018-10-18T01:19:26.279Z,20.4
2018-10-18T01:20:19.747Z,20.5
2018-10-18T01:21:07.456Z,20.4
2018-10-18T01:21:57.248Z,20.4
2018-10-18T01:22:47.019Z,20.5
2018-10-18T01:23:37.282Z,20.5
2018-10-18T01:24:27.142Z,20.5
2018-10-18T01:25:17.462Z,20.5
2018-10-18T01:26:08.793Z,20.4
2018-10-18T01:26:58.357Z,20.4
2018-10-18T01:27:46.768Z,20.4
2018-10-18T01:28:37.663Z,20.4
2018-10-18T01:29:27.688Z,20.4
2018-10-18T01:30:19.103Z,20.4
2018-10-18T01:31:08.048Z,20.4
2018-10-18T01:31:58.322Z,20.4
2018-10-18T01:32:48.250Z,20.4
2018-10-18T01:33:38.040Z,20.4
2018-10-18T01:34:28.105Z,20.4
2018-10-18T01:35:17.859Z,20.4
2018-10-18T01:36:09.700Z,20.4
2018-10-18T01:36:58.259Z,20.4
2018-10-18T01:37:48.611Z,20.4
2018-10-18T01:38:39.271Z,20.4
2018-10-18T01:39:28.742Z,20.4
2018-10-18T01:40:18.544Z,20.4
2018-10-18T01:41:08.009Z,20.4
2018-10-18T01:41:59.663Z,20.4
2018-10-18T01:42:49.044Z,20.4
2018-10-18T01:43:38.816Z,20.4
2018-10-18T01:44:28.618Z,20.4
2018-10-18T01:45:18.849Z,20.4
2018-10-18T01:46:08.929Z,20.4
2018-10-18T01:46:58.721Z,20.4
2018-10-18T01:47:48.519Z,20.4
2018-10-18T01:48:38.909Z,20.4
2018-10-18T01:49:29.189Z,20.4
2018-10-18T01:50:20.258Z,20.4
2018-10-18T01:51:09.587Z,20.4
2018-10-18T01:51:57.989Z,20.4
2018-10-18T01:52:48.304Z,20.4
2018-10-18T01:53:39.493Z,20.4
2018-10-18T01:54:29.298Z,20.4
2018-10-18T01:55:19.869Z,20.4
2018-10-18T01:56:11.904Z,20.4
2018-10-18T01:57:00.021Z,20.4
2018-10-18T01:57:49.538Z,20.4
2018-10-18T01:58:39.548Z,20.4
2018-10-18T01:59:29.973Z,20.4
2018-10-18T02:00:21.864Z,20.4
2018-10-18T02:01:10.347Z,20.4
2018-10-18T02:02:00.843Z,20.4
2018-10-18T02:02:50.476Z,20.4
2018-10-18T02:03:40.210Z,20.4
2018-10-18T02:04:30.618Z,20.4
2018-10-18T02:05:19.921Z,20.4
2018-10-18T02:06:12.149Z,20.4
2018-10-18T02:07:00.468Z,20.4
2018-10-18T02:07:50.555Z,20.4
2018-10-18T02:08:40.296Z,20.4
2018-10-18T02:09:29.855Z,20.4
2018-10-18T02:10:20.993Z,20.4
2018-10-18T02:11:10.462Z,20.4
2018-10-18T02:12:01.151Z,20.4
2018-10-18T02:12:50.920Z,20.4
2018-10-18T02:13:41.915Z,20.4
2018-10-18T02:14:30.492Z,20.4
2018-10-18T02:15:21.627Z,20.4
2018-10-18T02:16:11.454Z,20.4
2018-10-18T02:17:01.520Z,20.4
2018-10-18T02:17:50.992Z,20.4
2018-10-18T02:18:41.612Z,20.4
2018-10-18T02:19:31.997Z,20.4
2018-10-18T02:20:21.738Z,20.4
2018-10-18T02:21:11.542Z,20.4
2018-10-18T02:22:01.650Z,20.4
2018-10-18T02:22:51.359Z,20.4
2018-10-18T02:23:41.667Z,20.4
2018-10-18T02:24:31.807Z,20.4
2018-10-18T02:25:23.480Z,20.4
2018-10-18T02:26:12.171Z,20.4
2018-10-18T02:27:01.945Z,20.4
2018-10-18T02:27:52.244Z,20.4
2018-10-18T02:28:42.038Z,20.4
2018-10-18T02:29:31.866Z,20.4
2018-10-18T02:30:24.783Z,20.4
2018-10-18T02:31:12.071Z,20.4
2018-10-18T02:32:02.354Z,20.4
2018-10-18T02:32:52.640Z,20.4
2018-10-18T02:33:41.849Z,20.4
2018-10-18T02:34:32.511Z,20.4
2018-10-18T02:35:22.664Z,20.4
2018-10-18T02:36:14.760Z,20.4
2018-10-18T02:37:01.834Z,20.4
2018-10-18T02:37:53.050Z,20.4
2018-10-18T02:38:43.137Z,20.4
2018-10-18T02:39:32.912Z,20.4
2018-10-18T02:40:22.926Z,20.4
2018-10-18T02:41:12.742Z,20.4
2018-10-18T02:42:04.052Z,20.4
2018-10-18T02:42:53.093Z,20.4
2018-10-18T02:43:42.882Z,20.4
2018-10-18T02:44:33.295Z,20.4
2018-10-18T02:45:23.043Z,20.4
2018-10-18T02:46:13.647Z,20.4
2018-10-18T02:47:03.471Z,20.4
2018-10-18T02:47:53.965Z,20.4
2018-10-18T02:48:43.288Z,20.4
2018-10-18T02:49:33.590Z,20.4
2018-10-18T02:50:23.117Z,20.4
2018-10-18T02:51:14.110Z,20.4
2018-10-18T02:52:03.219Z,20.4
2018-10-18T02:52:53.738Z,20.4
2018-10-18T02:53:44.255Z,20.4
2018-10-18T02:54:34.217Z,20.4
2018-10-18T02:55:23.736Z,20.4
2018-10-18T02:56:13.724Z,20.4
2018-10-18T02:57:04.470Z,20.4
2018-10-18T02:57:54.214Z,20.4
2018-10-18T02:58:44.264Z,20.4
2018-10-18T02:59:34.170Z,20.4
2018-10-18T03:00:24.573Z,20.4
2018-10-18T03:01:14.207Z,20.4
2018-10-18T03:02:04.532Z,20.4
2018-10-18T03:02:54.273Z,20.4
2018-10-18T03:03:44.960Z,20.4
2018-10-18T03:04:34.702Z,20.4
2018-10-18T03:05:24.275Z,20.4
2018-10-18T03:06:14.808Z,20.4
2018-10-18T03:07:04.380Z,20.4
2018-10-18T03:07:54.464Z,20.4
2018-10-18T03:08:44.798Z,20.4
2018-10-18T03:09:34.395Z,20.4
2018-10-18T03:10:24.713Z,20.4
2018-10-18T03:11:14.665Z,20.4
2018-10-18T03:12:05.474Z,20.4
2018-10-18T03:12:55.063Z,20.4
2018-10-18T03:13:44.806Z,20.4
2018-10-18T03:14:35.694Z,20.4
2018-10-18T03:15:25.523Z,20.3
2018-10-18T03:16:17.652Z,20.4
2018-10-18T03:17:05.416Z,20.4
2018-10-18T03:17:56.361Z,20.3
2018-10-18T03:18:45.774Z,20.3
2018-10-18T03:19:34.964Z,20.4
2018-10-18T03:20:25.336Z,20.4
2018-10-18T03:21:15.945Z,20.3
2018-10-18T03:22:06.129Z,20.3
2018-10-18T03:22:55.907Z,20.3
2018-10-18T03:23:46.069Z,20.4
2018-10-18T03:24:36.936Z,20.3
2018-10-18T03:25:26.845Z,20.3
2018-10-18T03:26:16.611Z,20.3
2018-10-18T03:27:06.646Z,20.4
2018-10-18T03:27:56.439Z,20.3
2018-10-18T03:28:46.185Z,20.3
2018-10-18T03:29:35.965Z,20.3
2018-10-18T03:30:28.246Z,20.3
2018-10-18T03:31:16.203Z,20.3
2018-10-18T03:32:07.250Z,20.3
2018-10-18T03:32:55.962Z,20.3
2018-10-18T03:33:47.174Z,20.3
2018-10-18T03:34:37.187Z,20.3
2018-10-18T03:35:27.510Z,20.3
2018-10-18T03:36:19.022Z,20.3
2018-10-18T03:37:07.378Z,20.3
2018-10-18T03:37:57.413Z,20.3
2018-10-18T03:38:46.924Z,20.3
2018-10-18T03:39:37.568Z,20.3
2018-10-18T03:40:27.643Z,20.3
2018-10-18T03:41:17.109Z,20.3
2018-10-18T03:42:07.147Z,20.3
2018-10-18T03:42:57.536Z,20.3
2018-10-18T03:43:47.928Z,20.3
2018-10-18T03:44:37.961Z,20.3
2018-10-18T03:45:27.978Z,20.3
2018-10-18T03:46:17.813Z,20.3
2018-10-18T03:47:08.160Z,20.3
2018-10-18T03:47:58.071Z,20.3
2018-10-18T03:48:48.351Z,20.3
2018-10-18T03:49:38.028Z,20.3
2018-10-18T03:50:28.373Z,20.3
2018-10-18T03:51:18.422Z,20.3
2018-10-18T03:52:08.243Z,20.3
2018-10-18T03:52:58.345Z,20.3
2018-10-18T03:53:48.421Z,20.3
2018-10-18T03:54:38.578Z,20.3
2018-10-18T03:55:28.574Z,20.3
2018-10-18T03:56:18.387Z,20.3
2018-10-18T03:57:07.981Z,20.3
2018-10-18T03:57:58.907Z,20.3
2018-10-18T03:58:48.172Z,20.3
2018-10-18T03:59:40.431Z,20.3
2018-10-18T04:00:28.890Z,20.3
2018-10-18T04:01:18.907Z,20.3
2018-10-18T04:02:08.916Z,20.3
2018-10-18T04:02:57.859Z,20.3
2018-10-18T04:03:49.031Z,20.3
2018-10-18T04:04:39.117Z,20.3
2018-10-18T04:05:29.446Z,20.3
2018-10-18T04:06:20.573Z,20.3
2018-10-18T04:07:09.571Z,20.3
2018-10-18T04:07:59.346Z,20.3
2018-10-18T04:08:49.119Z,20.3
2018-10-18T04:09:39.469Z,20.3
2018-10-18T04:10:29.532Z,20.3
2018-10-18T04:11:19.544Z,20.3
2018-10-18T04:12:12.036Z,20.3
2018-10-18T04:13:00.932Z,20.3
2018-10-18T04:13:50.131Z,20.3
2018-10-18T04:14:39.583Z,20.3
2018-10-18T04:15:29.896Z,20.3
2018-10-18T04:16:20.243Z,20.3
2018-10-18T04:17:10.273Z,20.3
2018-10-18T04:18:02.789Z,20.3
2018-10-18T04:18:50.181Z,20.3
2018-10-18T04:19:40.238Z,20.3
2018-10-18T04:20:30.538Z,20.3
2018-10-18T04:21:20.628Z,20.3
2018-10-18T04:22:10.115Z,20.3
2018-10-18T04:23:00.186Z,20.3
2018-10-18T04:23:50.260Z,20.3
2018-10-18T04:24:40.395Z,20.3
2018-10-18T04:25:31.431Z,20.3
2018-10-18T04:26:21.010Z,20.3
2018-10-18T04:27:10.498Z,20.3
2018-10-18T04:28:00.910Z,20.3
2018-10-18T04:28:50.725Z,20.3
2018-10-18T04:29:41.156Z,20.3
2018-10-18T04:30:31.254Z,20.3
2018-10-18T04:31:20.844Z,20.3
2018-10-18T04:32:10.292Z,20.3
2018-10-18T04:33:01.440Z,20.3
2018-10-18T04:33:50.968Z,20.3
2018-10-18T04:34:41.649Z,20.3
2018-10-18T04:35:30.615Z,20.3
2018-10-18T04:36:21.729Z,20.3
2018-10-18T04:54:39.288Z,20.3
2018-10-18T04:55:29.482Z,20.3
2018-10-18T04:56:18.708Z,20.3
2018-10-18T04:57:09.424Z,20.3
2018-10-18T04:57:59.100Z,20.3
2018-10-18T04:58:49.762Z,20.3
2018-10-18T04:59:40.040Z,20.3
2018-10-18T05:00:29.867Z,20.3
2018-10-18T05:01:21.812Z,20.3
2018-10-18T05:02:10.185Z,20.2
2018-10-18T05:03:00.362Z,20.3
2018-10-18T05:03:49.953Z,20.2
2018-10-18T05:04:40.202Z,20.3
2018-10-18T05:05:29.622Z,20.3
2018-10-18T05:06:20.226Z,20.3
2018-10-18T05:07:11.256Z,20.3
2018-10-18T05:08:00.406Z,20.3
2018-10-18T05:08:50.204Z,20.2
2018-10-18T05:09:40.232Z,20.2
2018-10-18T05:10:30.642Z,20.3
2018-10-18T05:11:21.354Z,20.2
2018-10-18T05:12:10.663Z,20.3
2018-10-18T05:13:01.133Z,20.2
2018-10-18T05:13:50.227Z,20.2
2018-10-18T05:14:40.009Z,20.3
2018-10-18T05:15:31.441Z,20.2
2018-10-18T05:16:21.047Z,20.2
2018-10-18T05:17:09.993Z,20.2
2018-10-18T05:17:59.964Z,20.2
2018-10-18T05:18:50.864Z,20.2
2018-10-18T05:19:40.762Z,20.2
2018-10-18T05:20:31.044Z,20.2
2018-10-18T05:21:21.632Z,20.2
2018-10-18T05:22:11.434Z,20.2
2018-10-18T05:23:01.473Z,20.2
2018-10-18T05:23:51.958Z,20.2
2018-10-18T05:24:41.367Z,20.2
2018-10-18T05:25:32.790Z,20.2
2018-10-18T05:26:21.444Z,20.2
2018-10-18T05:27:11.551Z,20.2
2018-10-18T05:28:01.861Z,20.3
2018-10-18T05:28:51.388Z,20.2
2018-10-18T05:29:41.776Z,20.2
2018-10-18T05:30:32.322Z,20.2
2018-10-18T05:31:23.008Z,20.2
2018-10-18T05:32:11.871Z,20.2
2018-10-18T05:33:01.398Z,20.2
2018-10-18T05:33:52.385Z,20.2
2018-10-18T05:34:42.639Z,20.2
2018-10-18T05:35:32.864Z,20.2
2018-10-18T05:36:23.054Z,20.2
2018-10-18T05:37:14.152Z,20.2
2018-10-18T05:38:02.142Z,20.2
2018-10-18T05:38:52.646Z,20.2
2018-10-18T05:39:42.415Z,20.2
2018-10-18T05:40:32.455Z,20.2
2018-10-18T05:41:23.124Z,20.2
2018-10-18T05:42:12.574Z,20.2
2018-10-18T05:43:03.525Z,20.2
2018-10-18T05:43:52.455Z,20.2
2018-10-18T05:44:42.808Z,20.2
2018-10-18T05:45:33.464Z,20.2
2018-10-18T05:46:22.990Z,20.2
2018-10-18T05:47:13.144Z,20.2
2018-10-18T05:48:03.319Z,20.2
2018-10-18T05:48:53.409Z,20.2
2018-10-18T05:49:43.240Z,20.2
2018-10-18T05:50:33.367Z,20.2
2018-10-18T05:51:23.737Z,20.2
2018-10-18T05:52:13.995Z,20.2
2018-10-18T05:53:04.181Z,20.2
2018-10-18T05:53:56.000Z,20.2
2018-10-18T05:54:43.581Z,20.2
2018-10-18T05:55:33.452Z,20.2
2018-10-18T05:56:23.755Z,20.2
2018-10-18T05:57:13.832Z,20.2
2018-10-18T05:58:04.386Z,20.2
2018-10-18T05:58:53.997Z,20.2
2018-10-18T05:59:44.273Z,20.2
2018-10-18T06:00:34.501Z,20.2
2018-10-18T06:01:25.132Z,20.2
2018-10-18T06:02:13.758Z,20.2
2018-10-18T06:03:03.881Z,20.2
2018-10-18T06:03:54.641Z,20.2
2018-10-18T06:04:44.293Z,20.2
2018-10-18T06:05:34.343Z,20.2
2018-10-18T06:06:23.937Z,20.2
2018-10-18T06:07:16.113Z,20.2
2018-10-18T06:08:04.503Z,20.2
2018-10-18T06:08:54.273Z,20.2
2018-10-18T06:09:45.009Z,20.2
2018-10-18T06:10:37.036Z,20.2
2018-10-18T06:11:25.020Z,20.2
2018-10-18T06:12:15.050Z,20.2
2018-10-18T06:13:05.726Z,20.2
2018-10-18T06:13:55.287Z,20.2
2018-10-18T06:14:45.543Z,20.2
2018-10-18T06:15:35.078Z,20.2
2018-10-18T06:16:25.384Z,20.2
2018-10-18T06:17:15.195Z,20.2
2018-10-18T06:18:05.225Z,20.2
2018-10-18T06:18:55.265Z,20.3
2018-10-18T06:19:45.425Z,20.2
2018-10-18T06:20:35.715Z,20.2
2018-10-18T06:21:25.465Z,20.2
2018-10-18T06:22:16.122Z,20.2
2018-10-18T06:23:06.443Z,20.3
2018-10-18T06:23:55.680Z,20.3
2018-10-18T06:24:45.454Z,20.2
2018-10-18T06:25:36.085Z,20.3
2018-10-18T06:26:26.144Z,20.3
2018-10-18T06:27:15.889Z,20.3
2018-10-18T06:28:05.704Z,20.3
2018-10-18T06:28:56.059Z,20.3
2018-10-18T06:29:46.404Z,20.3
2018-10-18T06:30:36.443Z,20.3
2018-10-18T06:31:26.254Z,20.3
2018-10-18T06:32:16.304Z,20.3
2018-10-18T06:33:06.728Z,20.3
2018-10-18T06:33:56.435Z,20.3
2018-10-18T06:34:46.443Z,20.3
2018-10-18T06:35:36.516Z,20.3
2018-10-18T06:36:26.896Z,20.3
2018-10-18T06:37:18.913Z,20.3
2018-10-18T06:38:06.737Z,20.3
2018-10-18T06:38:56.871Z,20.3
2018-10-18T06:39:46.517Z,20.3
2018-10-18T06:40:36.607Z,20.3
2018-10-18T06:41:26.926Z,20.3
2018-10-18T06:42:17.260Z,20.3
2018-10-18T06:43:08.199Z,20.3
2018-10-18T06:43:57.598Z,20.3
2018-10-18T06:44:47.161Z,20.3
2018-10-18T06:45:37.219Z,20.3
2018-10-18T06:46:26.756Z,20.3
2018-10-18T06:47:19.608Z,20.3
2018-10-18T06:48:09.560Z,20.3
2018-10-18T06:48:58.803Z,20.3
2018-10-18T06:49:47.243Z,20.3
2018-10-18T06:50:37.633Z,20.3
2018-10-18T06:51:27.378Z,20.3
2018-10-18T06:52:17.521Z,20.3
2018-10-18T06:53:08.276Z,20.3
2018-10-18T06:53:57.574Z,20.3
2018-10-18T06:54:47.688Z,20.3
2018-10-18T06:55:38.264Z,20.3
2018-10-18T06:56:27.506Z,20.3
2018-10-18T06:57:18.385Z,20.3
2018-10-18T06:58:07.342Z,20.3
2018-10-18T06:58:57.160Z,20.4
2018-10-18T06:59:49.539Z,20.3
2018-10-18T07:00:38.920Z,20.4
2018-10-18T07:01:28.451Z,20.3
2018-10-18T07:02:18.860Z,20.4
2018-10-18T07:03:08.580Z,20.4
2018-10-18T07:03:58.849Z,20.4
2018-10-18T07:04:48.085Z,20.3
2018-10-18T07:05:38.725Z,20.4
2018-10-18T07:06:29.075Z,20.4
2018-10-18T07:07:18.807Z,20.4
2018-10-18T07:08:08.942Z,20.4
2018-10-18T07:08:59.959Z,20.4
2018-10-18T07:09:48.714Z,20.4
2018-10-18T07:10:39.140Z,20.3
2018-10-18T07:11:29.116Z,20.3
2018-10-18T07:12:20.664Z,20.4
2018-10-18T07:13:09.227Z,20.3
2018-10-18T07:13:59.282Z,20.3
2018-10-18T07:14:49.982Z,20.4
2018-10-18T07:15:39.184Z,20.4
2018-10-18T07:16:29.480Z,20.3
2018-10-18T07:17:19.589Z,20.3
2018-10-18T07:18:11.182Z,20.4
2018-10-18T07:18:59.949Z,20.4
2018-10-18T07:19:49.152Z,20.3
2018-10-18T07:20:39.770Z,20.4
2018-10-18T07:21:29.564Z,20.4
2018-10-18T07:22:19.661Z,20.4
2018-10-18T07:23:10.741Z,20.4
2018-10-18T07:24:00.512Z,20.4
2018-10-18T07:24:50.172Z,20.4
2018-10-18T07:25:39.616Z,20.4
2018-10-18T07:26:29.681Z,20.4
2018-10-18T07:27:20.283Z,20.4
2018-10-18T07:28:10.155Z,20.4
2018-10-18T07:29:00.653Z,20.4
2018-10-18T07:29:50.006Z,20.4
2018-10-18T07:30:40.843Z,20.4
2018-10-18T07:31:30.867Z,20.4
2018-10-18T07:32:20.173Z,20.4
2018-10-18T07:33:10.753Z,20.4
2018-10-18T07:34:00.257Z,20.4
2018-10-18T07:34:51.776Z,20.4
2018-10-18T07:35:40.920Z,20.4
2018-10-18T07:36:30.990Z,20.4
2018-10-18T07:37:21.245Z,20.4
2018-10-18T07:38:10.792Z,20.4
2018-10-18T07:39:00.937Z,20.4
2018-10-18T07:39:51.157Z,20.4
2018-10-18T07:40:40.222Z,20.4
2018-10-18T07:41:31.168Z,20.4
2018-10-18T07:42:22.824Z,20.4
2018-10-18T07:43:10.920Z,20.4
2018-10-18T07:44:01.692Z,20.4
2018-10-18T07:44:51.857Z,20.4
2018-10-18T07:45:41.912Z,20.4
2018-10-18T07:46:30.924Z,20.4
2018-10-18T07:47:21.807Z,20.4
2018-10-18T07:48:13.693Z,20.5
2018-10-18T07:49:02.180Z,20.5
2018-10-18T07:49:51.902Z,20.5
2018-10-18T07:50:42.387Z,20.5
2018-10-18T07:51:32.380Z,20.5
2018-10-18T07:52:22.164Z,20.5
2018-10-18T07:53:14.853Z,20.5
2018-10-18T07:54:03.699Z,20.5
2018-10-18T07:54:52.624Z,20.5
2018-10-18T07:55:42.165Z,20.5
2018-10-18T07:56:32.759Z,20.5
2018-10-18T07:57:22.201Z,20.5
2018-10-18T07:58:12.389Z,20.5
2018-10-18T07:59:03.179Z,20.6
2018-10-18T07:59:53.515Z,20.5
2018-10-18T08:00:44.289Z,20.6
2018-10-18T08:01:32.599Z,20.5
2018-10-18T08:02:23.245Z,20.6
2018-10-18T08:03:12.484Z,20.6
2018-10-18T08:04:02.973Z,20.6
2018-10-18T08:04:53.008Z,20.6
2018-10-18T08:05:43.419Z,20.6
2018-10-18T08:06:32.886Z,20.6
2018-10-18T08:07:23.818Z,20.6
2018-10-18T08:08:13.820Z,20.6
2018-10-18T08:09:03.136Z,20.6
2018-10-18T08:09:54.209Z,20.6
2018-10-18T08:10:42.901Z,20.6
2018-10-18T08:11:32.976Z,20.6
2018-10-18T08:12:23.608Z,20.6
2018-10-18T08:13:16.122Z,20.6
2018-10-18T08:14:03.246Z,20.6
2018-10-18T08:14:53.818Z,20.6
2018-10-18T08:15:44.193Z,20.6
2018-10-18T08:16:34.010Z,20.6
2018-10-18T08:17:25.078Z,20.6
2018-10-18T08:18:14.123Z,20.6
2018-10-18T08:19:05.601Z,20.6
2018-10-18T08:19:54.671Z,20.6
2018-10-18T08:20:43.739Z,20.6
2018-10-18T08:21:34.585Z,20.6
2018-10-18T08:22:24.583Z,20.6
2018-10-18T08:23:14.278Z,20.6
2018-10-18T08:24:04.505Z,20.6
2018-10-18T08:24:54.512Z,20.6
2018-10-18T08:25:44.777Z,20.6
2018-10-18T08:26:34.826Z,20.6
2018-10-18T08:27:25.251Z,20.6
2018-10-18T08:28:14.617Z,20.6
2018-10-18T08:29:04.233Z,20.6
2018-10-18T08:29:55.613Z,20.6
2018-10-18T08:30:45.129Z,20.6
2018-10-18T08:31:37.243Z,20.6
2018-10-18T08:32:25.519Z,20.6
2018-10-18T08:33:15.173Z,20.6
2018-10-18T08:34:04.964Z,20.6
2018-10-18T08:34:54.761Z,20.6
2018-10-18T08:35:45.724Z,20.6
2018-10-18T08:36:35.374Z,20.6
2018-10-18T08:37:26.726Z,20.6
2018-10-18T08:38:18.028Z,20.6
2018-10-18T08:39:06.198Z,20.6
2018-10-18T08:39:54.918Z,20.6
2018-10-18T08:40:46.197Z,20.6
2018-10-18T08:41:35.486Z,20.6
2018-10-18T08:42:25.846Z,20.6
2018-10-18T08:43:16.908Z,20.6
2018-10-18T08:44:08.524Z,20.6
2018-10-18T08:44:55.727Z,20.6
2018-10-18T08:45:46.303Z,20.6
2018-10-18T08:46:36.447Z,20.6
2018-10-18T08:47:26.477Z,20.6
2018-10-18T08:48:16.528Z,20.6
2018-10-18T08:49:07.443Z,20.6
2018-10-18T08:49:58.578Z,20.6
2018-10-18T08:50:46.396Z,20.6
2018-10-18T08:51:36.500Z,20.6
2018-10-18T08:52:26.296Z,20.6
2018-10-18T09:08:54.647Z,20.6
2018-10-18T09:09:44.274Z,20.7
2018-10-18T09:10:33.484Z,20.7
2018-10-18T09:11:23.325Z,20.7
2018-10-18T09:12:14.442Z,20.7
2018-10-18T09:13:04.829Z,20.7
2018-10-18T09:13:53.969Z,20.7
2018-10-18T09:14:44.399Z,20.7
2018-10-18T09:15:33.915Z,20.7
2018-10-18T09:16:24.752Z,20.7
2018-10-18T09:17:14.789Z,20.7
2018-10-18T09:18:04.572Z,20.7
2018-10-18T09:18:55.270Z,20.7
2018-10-18T09:19:44.397Z,20.7
2018-10-18T09:20:34.214Z,20.7
2018-10-18T09:21:25.092Z,20.7
2018-10-18T09:22:15.224Z,20.7
2018-10-18T09:23:04.203Z,20.7
2018-10-18T09:23:55.914Z,20.7
2018-10-18T09:24:44.882Z,20.7
2018-10-18T09:25:36.539Z,20.7
2018-10-18T09:26:25.924Z,20.7
2018-10-18T09:27:14.949Z,20.7
2018-10-18T09:28:05.330Z,20.8
2018-10-18T09:28:55.692Z,20.7
2018-10-18T09:29:45.460Z,20.7
2018-10-18T09:30:36.741Z,20.8
2018-10-18T09:31:25.949Z,20.8
2018-10-18T09:32:15.081Z,20.8
2018-10-18T09:33:05.500Z,20.8
2018-10-18T09:33:55.283Z,20.8
2018-10-18T09:34:46.233Z,20.8
2018-10-18T09:35:36.006Z,20.8
2018-10-18T09:36:26.332Z,20.8
2018-10-18T09:37:17.435Z,20.8
2018-10-18T09:38:06.144Z,20.8
2018-10-18T09:38:56.110Z,20.8
2018-10-18T09:39:46.802Z,20.8
2018-10-18T09:40:36.570Z,20.8
2018-10-18T09:41:26.075Z,20.8
2018-10-18T09:42:16.704Z,20.8
2018-10-18T09:43:07.707Z,20.8
2018-10-18T09:43:56.442Z,20.8
2018-10-18T09:44:47.641Z,20.8
2018-10-18T09:45:36.415Z,20.8
2018-10-18T09:46:25.983Z,20.8
2018-10-18T09:47:17.290Z,20.8
2018-10-18T09:48:07.095Z,20.8
2018-10-18T09:48:57.986Z,20.8
2018-10-18T09:49:47.187Z,20.8
2018-10-18T09:50:37.252Z,20.8
2018-10-18T09:51:26.824Z,20.8
2018-10-18T09:52:17.153Z,20.8
2018-10-18T09:53:06.984Z,20.8
2018-10-18T09:53:57.252Z,20.8
2018-10-18T09:54:47.569Z,20.8
2018-10-18T09:55:38.842Z,20.8
2018-10-18T09:56:27.164Z,20.8
2018-10-18T09:57:17.505Z,20.8
2018-10-18T09:58:06.966Z,20.8
2018-10-18T09:58:57.589Z,20.8
2018-10-18T09:59:46.327Z,20.8
2018-10-18T10:00:37.543Z,20.8
2018-10-18T10:01:27.554Z,20.8
2018-10-18T10:02:18.401Z,20.8
2018-10-18T10:03:07.651Z,20.8
2018-10-18T10:03:57.426Z,20.8
2018-10-18T10:04:48.336Z,20.8
2018-10-18T10:05:38.424Z,20.8
2018-10-18T10:06:28.474Z,20.8
2018-10-18T10:07:20.105Z,20.8
2018-10-18T10:08:08.033Z,20.8
2018-10-18T10:08:58.625Z,20.8
2018-10-18T10:09:48.424Z,20.8
2018-10-18T10:10:38.723Z,20.8
2018-10-18T10:11:28.568Z,20.8
2018-10-18T10:12:18.063Z,20.8
2018-10-18T10:13:10.153Z,20.8
2018-10-18T10:13:58.731Z,20.8
2018-10-18T10:14:48.823Z,20.8
2018-10-18T10:15:39.133Z,20.8
2018-10-18T10:16:28.725Z,20.8
2018-10-18T10:17:20.306Z,20.8
2018-10-18T10:18:09.798Z,20.9
2018-10-18T10:18:59.297Z,20.9
2018-10-18T10:19:49.442Z,20.9
2018-10-18T10:20:39.243Z,20.8
2018-10-18T10:21:29.252Z,20.9
2018-10-18T10:22:18.590Z,20.9
2018-10-18T10:23:09.082Z,20.9
2018-10-18T10:23:58.916Z,20.9
2018-10-18T10:24:50.602Z,20.8
2018-10-18T10:25:39.872Z,20.9
2018-10-18T10:26:29.960Z,20.9
2018-10-18T10:27:18.927Z,20.9
2018-10-18T10:28:09.765Z,20.9
2018-10-18T10:29:00.111Z,20.9
2018-10-18T10:29:49.900Z,20.9
2018-10-18T10:30:40.322Z,20.9
2018-10-18T10:31:30.295Z,20.9
2018-10-18T10:32:20.686Z,20.8
2018-10-18T10:33:12.579Z,20.9
2018-10-18T10:34:00.513Z,20.9
2018-10-18T10:34:49.434Z,20.9
2018-10-18T10:35:42.017Z,20.9
2018-10-18T10:36:30.396Z,20.9
2018-10-18T10:37:21.131Z,20.9
2018-10-18T10:38:10.516Z,20.9
2018-10-18T10:39:00.129Z,20.9
2018-10-18T10:39:50.365Z,20.9
2018-10-18T10:40:40.754Z,20.9
2018-10-18T10:41:30.767Z,20.9
2018-10-18T10:42:21.393Z,20.9
2018-10-18T10:43:12.069Z,20.9
2018-10-18T10:44:02.117Z,20.9
2018-10-18T10:44:52.166Z,20.9
2018-10-18T10:45:42.368Z,20.9
2018-10-18T10:46:31.153Z,20.9
2018-10-18T10:47:21.191Z,20.9
2018-10-18T10:48:12.826Z,20.9
2018-10-18T10:49:01.364Z,20.9
2018-10-18T10:49:51.709Z,20.9
2018-10-18T10:50:41.399Z,20.9
2018-10-18T10:51:31.489Z,20.9
2018-10-18T10:52:23.502Z,20.9
2018-10-18T10:53:10.851Z,20.9
2018-10-18T10:54:03.061Z,20.9
2018-10-18T10:54:51.767Z,20.9
2018-10-18T10:55:41.784Z,20.9
2018-10-18T10:56:32.173Z,20.9
2018-10-18T10:57:23.123Z,20.9
2018-10-18T10:58:14.068Z,20.9
2018-10-18T10:59:03.639Z,20.9
2018-10-18T10:59:52.154Z,20.9
2018-10-18T11:00:42.785Z,20.9
2018-10-18T11:01:32.365Z,20.9
2018-10-18T11:02:22.791Z,20.9
2018-10-18T11:03:13.611Z,20.9
2018-10-18T11:04:01.954Z,20.9
2018-10-18T11:04:52.516Z,20.9
2018-10-18T11:05:42.971Z,20.9
2018-10-18T11:06:32.700Z,20.9
2018-10-18T11:07:22.958Z,20.9
2018-10-18T11:08:15.121Z,20.9
2018-10-18T11:09:03.651Z,20.9
2018-10-18T11:09:53.996Z,20.9
2018-10-18T11:10:42.733Z,20.9
2018-10-18T11:11:32.715Z,20.9
2018-10-18T11:12:24.773Z,20.9
2018-10-18T11:13:12.818Z,20.9
2018-10-18T11:14:04.374Z,20.9
2018-10-18T11:14:53.630Z,20.9
2018-10-18T11:15:42.807Z,20.9
2018-10-18T11:16:33.395Z,20.9
2018-10-18T11:17:25.337Z,20.9
2018-10-18T11:18:14.567Z,21
2018-10-18T11:19:03.328Z,20.9
2018-10-18T11:19:54.007Z,21
2018-10-18T11:20:43.924Z,21
2018-10-18T11:21:35.331Z,21
2018-10-18T11:22:24.070Z,21
2018-10-18T11:23:13.852Z,21
2018-10-18T11:24:04.881Z,21
2018-10-18T11:24:56.395Z,21
2018-10-18T11:25:44.317Z,21
2018-10-18T11:26:34.120Z,21
2018-10-18T11:27:25.590Z,21
2018-10-18T11:28:14.250Z,21
2018-10-18T11:29:04.036Z,21.1
2018-10-18T11:29:54.494Z,21
2018-10-18T11:30:44.395Z,21.1
2018-10-18T11:31:34.192Z,21.1
2018-10-18T11:32:24.872Z,21.1
2018-10-18T11:33:17.324Z,21.1
2018-10-18T11:34:05.201Z,21.1
2018-10-18T11:34:54.791Z,21.1
2018-10-18T11:35:44.291Z,21.1
2018-10-18T11:36:35.429Z,21.1
2018-10-18T11:37:24.644Z,21.1
2018-10-18T11:38:17.312Z,21.1
2018-10-18T11:39:04.766Z,21.1
2018-10-18T11:39:55.480Z,21.1
2018-10-18T11:51:38.019Z,21.2
2018-10-18T11:52:26.055Z,21.2
2018-10-18T11:53:16.404Z,21.2
2018-10-18T11:54:07.978Z,21.2
2018-10-18T11:54:55.665Z,21.2
2018-10-18T11:55:46.283Z,21.2
2018-10-18T11:56:35.570Z,21.2
2018-10-18T11:57:26.413Z,21.2
2018-10-18T11:58:16.485Z,21.2
2018-10-18T11:59:07.748Z,21.2
2018-10-18T11:59:56.662Z,21.2
2018-10-18T12:00:47.067Z,21.2
2018-10-18T12:01:36.745Z,21.3
2018-10-18T12:02:28.443Z,21.3
2018-10-18T12:03:17.312Z,21.3
2018-10-18T12:04:06.355Z,21.3
2018-10-18T12:04:57.913Z,21.3
2018-10-18T12:05:47.332Z,21.3
2018-10-18T12:06:37.254Z,21.3
2018-10-18T12:07:27.681Z,21.3
2018-10-18T12:08:18.461Z,21.3
2018-10-18T12:09:07.321Z,21.3